GLO9818 SBGL-SBCF
Flight info
| Callsign | GLO9818 |
|---|---|
| Flight time | 0h 41m |
| Altitude | 35000 |
| Route | DAKDA Z36 TOKUR |
| Aircraft | B38M/M-SDFGHIJ4J5KLORWXY/LB1 |
Departure
| Time | 2026-05-09 02:26 |
|---|---|
| Airport | Rio Galeão – Tom Jobim International Airport (SBGL) |
Arrival
| Time | 2026-05-09 03:08 |
|---|---|
| Airport | Tancredo Neves International Airport (SBCF) |
| Time | Latitude | Longitude | Altitude | Speed | Heading |
|---|---|---|---|---|---|
| 2026-05-09 01:54 | -22.81248 | -43.25196 | 24 ft | 0 kts | 27° |
| 2026-05-09 02:14 | -22.81255 | -43.25200 | 24 ft | 3 kts | 27° |
| 2026-05-09 02:14 | -22.81273 | -43.25210 | 28 ft | 2 kts | 27° |
| 2026-05-09 02:15 | -22.81292 | -43.25217 | 28 ft | 3 kts | 354° |
| 2026-05-09 02:15 | -22.81310 | -43.25209 | 25 ft | 3 kts | 318° |
| 2026-05-09 02:15 | -22.81322 | -43.25195 | 27 ft | 1 kts | 305° |
| 2026-05-09 02:15 | -22.81324 | -43.25192 | 27 ft | 0 kts | 305° |
| 2026-05-09 02:19 | -22.81317 | -43.25203 | 28 ft | 3 kts | 305° |
| 2026-05-09 02:19 | -22.81299 | -43.25231 | 28 ft | 6 kts | 305° |
| 2026-05-09 02:19 | -22.81268 | -43.25276 | 25 ft | 9 kts | 309° |
| 2026-05-09 02:19 | -22.81217 | -43.25327 | 24 ft | 11 kts | 322° |
| 2026-05-09 02:20 | -22.81140 | -43.25371 | 26 ft | 14 kts | 343° |
| 2026-05-09 02:20 | -22.81043 | -43.25385 | 27 ft | 12 kts | 2° |
| 2026-05-09 02:20 | -22.80966 | -43.25394 | 24 ft | 11 kts | 315° |
| 2026-05-09 02:20 | -22.80932 | -43.25464 | 29 ft | 9 kts | 293° |
| 2026-05-09 02:21 | -22.80907 | -43.25521 | 30 ft | 10 kts | 296° |
| 2026-05-09 02:21 | -22.80869 | -43.25604 | 26 ft | 17 kts | 301° |
| 2026-05-09 02:21 | -22.80817 | -43.25676 | 28 ft | 11 kts | 325° |
| 2026-05-09 02:21 | -22.80750 | -43.25670 | 31 ft | 10 kts | 32° |
| 2026-05-09 02:22 | -22.80680 | -43.25625 | 31 ft | 13 kts | 27° |
| 2026-05-09 02:22 | -22.80599 | -43.25565 | 31 ft | 14 kts | 51° |
| 2026-05-09 02:22 | -22.80525 | -43.25494 | 33 ft | 15 kts | 43° |
| 2026-05-09 02:22 | -22.80445 | -43.25429 | 31 ft | 11 kts | 3° |
| 2026-05-09 02:23 | -22.80368 | -43.25472 | 31 ft | 14 kts | 326° |
| 2026-05-09 02:23 | -22.80342 | -43.25491 | 30 ft | 0 kts | 326° |
| 2026-05-09 02:25 | -22.80323 | -43.25503 | 30 ft | 9 kts | 331° |
| 2026-05-09 02:25 | -22.80220 | -43.25490 | 27 ft | 17 kts | 35° |
| 2026-05-09 02:25 | -22.80159 | -43.25402 | 28 ft | 16 kts | 68° |
| 2026-05-09 02:26 | -22.80086 | -43.25114 | 29 ft | 76 kts | 74° |
| 2026-05-09 02:26 | -22.79878 | -43.24315 | 35 ft | 142 kts | 74° |
| 2026-05-09 02:26 | -22.79560 | -43.23087 | 91 ft | 190 kts | 75° |
| 2026-05-09 02:26 | -22.79231 | -43.21615 | 656 ft | 206 kts | 77° |
| 2026-05-09 02:27 | -22.78924 | -43.20162 | 1776 ft | 195 kts | 74° |
| 2026-05-09 02:27 | -22.78597 | -43.18637 | 2304 ft | 218 kts | 73° |
| 2026-05-09 02:27 | -22.78242 | -43.16979 | 2820 ft | 238 kts | 73° |
| 2026-05-09 02:27 | -22.77857 | -43.15183 | 3587 ft | 245 kts | 73° |
| 2026-05-09 02:28 | -22.77459 | -43.13333 | 4264 ft | 261 kts | 72° |
| 2026-05-09 02:28 | -22.77033 | -43.11359 | 4911 ft | 277 kts | 72° |
| 2026-05-09 02:28 | -22.76594 | -43.09315 | 5788 ft | 279 kts | 72° |
| 2026-05-09 02:28 | -22.76148 | -43.07243 | 6625 ft | 285 kts | 73° |
| 2026-05-09 02:29 | -22.75695 | -43.05144 | 7446 ft | 288 kts | 73° |
| 2026-05-09 02:29 | -22.75204 | -43.03034 | 8307 ft | 288 kts | 66° |
| 2026-05-09 02:29 | -22.74225 | -43.01207 | 9175 ft | 283 kts | 43° |
| 2026-05-09 02:29 | -22.72640 | -42.99974 | 9992 ft | 281 kts | 21° |
| 2026-05-09 02:30 | -22.70732 | -42.99444 | 10545 ft | 292 kts | 7° |
| 2026-05-09 02:30 | -22.68668 | -42.99081 | 11033 ft | 307 kts | 8° |
| 2026-05-09 02:30 | -22.66535 | -42.98679 | 11756 ft | 312 kts | 9° |
| 2026-05-09 02:30 | -22.64385 | -42.98273 | 12603 ft | 316 kts | 9° |
| 2026-05-09 02:31 | -22.62204 | -42.97860 | 13415 ft | 320 kts | 9° |
| 2026-05-09 02:31 | -22.60017 | -42.97447 | 14205 ft | 324 kts | 9° |
| 2026-05-09 02:31 | -22.57778 | -42.97024 | 14992 ft | 327 kts | 9° |
| 2026-05-09 02:31 | -22.55527 | -42.96600 | 15819 ft | 330 kts | 9° |
| 2026-05-09 02:32 | -22.53250 | -42.96171 | 16575 ft | 334 kts | 8° |
| 2026-05-09 02:32 | -22.50949 | -42.95737 | 17324 ft | 337 kts | 8° |
| 2026-05-09 02:32 | -22.48623 | -42.95298 | 18028 ft | 341 kts | 9° |
| 2026-05-09 02:32 | -22.46269 | -42.94855 | 18678 ft | 345 kts | 8° |
| 2026-05-09 02:33 | -22.43890 | -42.94408 | 19267 ft | 348 kts | 8° |
| 2026-05-09 02:33 | -22.41483 | -42.93956 | 19827 ft | 353 kts | 8° |
| 2026-05-09 02:33 | -22.39049 | -42.93499 | 20428 ft | 357 kts | 8° |
| 2026-05-09 02:33 | -22.36617 | -42.93042 | 21022 ft | 360 kts | 7° |
| 2026-05-09 02:34 | -22.34130 | -42.92576 | 21569 ft | 365 kts | 7° |
| 2026-05-09 02:34 | -22.31599 | -42.92468 | 22114 ft | 364 kts | 351° |
| 2026-05-09 02:34 | -22.29074 | -42.92870 | 22658 ft | 369 kts | 350° |
| 2026-05-09 02:34 | -22.26515 | -42.93255 | 23165 ft | 373 kts | 350° |
| 2026-05-09 02:35 | -22.23934 | -42.93662 | 23708 ft | 376 kts | 349° |
| 2026-05-09 02:35 | -22.21338 | -42.94080 | 24159 ft | 379 kts | 349° |
| 2026-05-09 02:35 | -22.18716 | -42.94508 | 24625 ft | 383 kts | 349° |
| 2026-05-09 02:35 | -22.16068 | -42.94942 | 25081 ft | 386 kts | 349° |
| 2026-05-09 02:36 | -22.13396 | -42.95381 | 25531 ft | 389 kts | 348° |
| 2026-05-09 02:36 | -22.10745 | -42.95818 | 25961 ft | 392 kts | 348° |
| 2026-05-09 02:36 | -22.08025 | -42.96266 | 26389 ft | 396 kts | 348° |
| 2026-05-09 02:36 | -22.05284 | -42.96717 | 26796 ft | 399 kts | 348° |
| 2026-05-09 02:37 | -22.02527 | -42.97171 | 27207 ft | 403 kts | 348° |
| 2026-05-09 02:37 | -21.99735 | -42.97631 | 27591 ft | 407 kts | 348° |
| 2026-05-09 02:37 | -21.96934 | -42.98092 | 27997 ft | 410 kts | 348° |
| 2026-05-09 02:37 | -21.94098 | -42.98559 | 28401 ft | 413 kts | 348° |
| 2026-05-09 02:38 | -21.91286 | -42.99022 | 28793 ft | 416 kts | 348° |
| 2026-05-09 02:38 | -21.88408 | -42.99495 | 29186 ft | 419 kts | 347° |
| 2026-05-09 02:38 | -21.85515 | -42.99971 | 29570 ft | 423 kts | 347° |
| 2026-05-09 02:38 | -21.82590 | -43.00451 | 29956 ft | 426 kts | 347° |
| 2026-05-09 02:39 | -21.79648 | -43.00934 | 30309 ft | 429 kts | 347° |
| 2026-05-09 02:39 | -21.76691 | -43.01420 | 30625 ft | 432 kts | 347° |
| 2026-05-09 02:39 | -21.73711 | -43.01909 | 30946 ft | 435 kts | 347° |
| 2026-05-09 02:39 | -21.70715 | -43.02400 | 31278 ft | 437 kts | 347° |
| 2026-05-09 02:40 | -21.67703 | -43.02894 | 31605 ft | 440 kts | 347° |
| 2026-05-09 02:40 | -21.64669 | -43.03392 | 31934 ft | 442 kts | 347° |
| 2026-05-09 02:40 | -21.61623 | -43.03891 | 32272 ft | 444 kts | 347° |
| 2026-05-09 02:40 | -21.58561 | -43.04392 | 32578 ft | 446 kts | 347° |
| 2026-05-09 02:41 | -21.55478 | -43.04897 | 32895 ft | 449 kts | 347° |
| 2026-05-09 02:41 | -21.52429 | -43.05396 | 33249 ft | 450 kts | 346° |
| 2026-05-09 02:41 | -21.49333 | -43.05902 | 33656 ft | 450 kts | 346° |
| 2026-05-09 02:41 | -21.46236 | -43.06408 | 34068 ft | 450 kts | 346° |
| 2026-05-09 02:42 | -21.43134 | -43.06915 | 34429 ft | 449 kts | 346° |
| 2026-05-09 02:42 | -21.40049 | -43.07419 | 34830 ft | 447 kts | 346° |
| 2026-05-09 02:42 | -21.36963 | -43.07923 | 35067 ft | 449 kts | 346° |
| 2026-05-09 02:43 | -21.30812 | -43.08926 | 35092 ft | 445 kts | 346° |
| 2026-05-09 02:43 | -21.24720 | -43.09920 | 35085 ft | 446 kts | 346° |
| 2026-05-09 02:44 | -21.18576 | -43.10922 | 35084 ft | 446 kts | 346° |
| 2026-05-09 02:44 | -21.12438 | -43.11921 | 35104 ft | 447 kts | 346° |
| 2026-05-09 02:45 | -21.07317 | -43.12755 | 35098 ft | 446 kts | 346° |
| 2026-05-09 02:45 | -21.01169 | -43.13754 | 35091 ft | 447 kts | 346° |
| 2026-05-09 02:46 | -20.95005 | -43.14756 | 35103 ft | 449 kts | 346° |
| 2026-05-09 02:46 | -20.88827 | -43.15759 | 35101 ft | 448 kts | 346° |
| 2026-05-09 02:46 | -20.85836 | -43.16244 | 35081 ft | 432 kts | 346° |
| 2026-05-09 02:47 | -20.82900 | -43.16721 | 34885 ft | 422 kts | 345° |
| 2026-05-09 02:47 | -20.80102 | -43.17526 | 34331 ft | 412 kts | 330° |
| 2026-05-09 02:47 | -20.77489 | -43.18809 | 33643 ft | 415 kts | 332° |
| 2026-05-09 02:47 | -20.74837 | -43.20027 | 33092 ft | 413 kts | 332° |
| 2026-05-09 02:48 | -20.72213 | -43.21253 | 32649 ft | 410 kts | 332° |
| 2026-05-09 02:48 | -20.69644 | -43.22468 | 32209 ft | 407 kts | 332° |
| 2026-05-09 02:48 | -20.67062 | -43.23696 | 31738 ft | 405 kts | 332° |
| 2026-05-09 02:48 | -20.64498 | -43.24919 | 31276 ft | 403 kts | 332° |
| 2026-05-09 02:49 | -20.61947 | -43.26136 | 30896 ft | 400 kts | 332° |
| 2026-05-09 02:49 | -20.59360 | -43.27373 | 30554 ft | 414 kts | 332° |
| 2026-05-09 02:49 | -20.56681 | -43.28652 | 30243 ft | 428 kts | 333° |
| 2026-05-09 02:49 | -20.53908 | -43.29974 | 29977 ft | 441 kts | 333° |
| 2026-05-09 02:50 | -20.51091 | -43.31316 | 29714 ft | 447 kts | 333° |
| 2026-05-09 02:50 | -20.48246 | -43.32672 | 29238 ft | 446 kts | 333° |
| 2026-05-09 02:50 | -20.45458 | -43.33999 | 28590 ft | 442 kts | 334° |
| 2026-05-09 02:50 | -20.42646 | -43.35338 | 27935 ft | 441 kts | 334° |
| 2026-05-09 02:51 | -20.39859 | -43.36665 | 27345 ft | 437 kts | 334° |
| 2026-05-09 02:51 | -20.37082 | -43.37986 | 26756 ft | 434 kts | 334° |
| 2026-05-09 02:51 | -20.34326 | -43.39297 | 26181 ft | 432 kts | 334° |
| 2026-05-09 02:51 | -20.31590 | -43.40597 | 25602 ft | 429 kts | 334° |
| 2026-05-09 02:52 | -20.28872 | -43.41889 | 25001 ft | 428 kts | 335° |
| 2026-05-09 02:52 | -20.26161 | -43.43176 | 24528 ft | 424 kts | 335° |
| 2026-05-09 02:52 | -20.23486 | -43.44445 | 24112 ft | 418 kts | 335° |
| 2026-05-09 02:52 | -20.20839 | -43.45701 | 23630 ft | 415 kts | 335° |
| 2026-05-09 02:53 | -20.18214 | -43.46946 | 23078 ft | 411 kts | 335° |
| 2026-05-09 02:53 | -20.15647 | -43.48163 | 22594 ft | 407 kts | 335° |
| 2026-05-09 02:53 | -20.13066 | -43.49387 | 22117 ft | 402 kts | 335° |
| 2026-05-09 02:53 | -20.10523 | -43.50591 | 21669 ft | 398 kts | 336° |
| 2026-05-09 02:54 | -20.07994 | -43.51789 | 21204 ft | 395 kts | 336° |
| 2026-05-09 02:54 | -20.05501 | -43.52969 | 20747 ft | 392 kts | 336° |
| 2026-05-09 02:54 | -20.03013 | -43.54146 | 20295 ft | 389 kts | 336° |
| 2026-05-09 02:54 | -20.00549 | -43.55312 | 19846 ft | 386 kts | 336° |
| 2026-05-09 02:55 | -19.98129 | -43.56456 | 19406 ft | 384 kts | 336° |
| 2026-05-09 02:55 | -19.95694 | -43.57608 | 18966 ft | 382 kts | 336° |
| 2026-05-09 02:55 | -19.93265 | -43.58756 | 18519 ft | 380 kts | 336° |
| 2026-05-09 02:55 | -19.90853 | -43.59894 | 18029 ft | 378 kts | 336° |
| 2026-05-09 02:56 | -19.88456 | -43.61027 | 17567 ft | 375 kts | 336° |
| 2026-05-09 02:56 | -19.86078 | -43.62162 | 17110 ft | 372 kts | 334° |
| 2026-05-09 02:56 | -19.83991 | -43.63736 | 16642 ft | 372 kts | 319° |
| 2026-05-09 02:56 | -19.82047 | -43.65518 | 16230 ft | 369 kts | 321° |
| 2026-05-09 02:57 | -19.80110 | -43.67287 | 15819 ft | 365 kts | 321° |
| 2026-05-09 02:57 | -19.78195 | -43.69049 | 15406 ft | 363 kts | 321° |
| 2026-05-09 02:57 | -19.76291 | -43.70809 | 14982 ft | 360 kts | 321° |
| 2026-05-09 02:57 | -19.74412 | -43.72551 | 14573 ft | 357 kts | 321° |
| 2026-05-09 02:58 | -19.72547 | -43.74280 | 14169 ft | 354 kts | 321° |
| 2026-05-09 02:58 | -19.70695 | -43.75998 | 13720 ft | 352 kts | 321° |
| 2026-05-09 02:58 | -19.68849 | -43.77709 | 13234 ft | 351 kts | 321° |
| 2026-05-09 02:58 | -19.67019 | -43.79406 | 12853 ft | 347 kts | 321° |
| 2026-05-09 02:59 | -19.65214 | -43.81078 | 12471 ft | 342 kts | 321° |
| 2026-05-09 02:59 | -19.63455 | -43.82706 | 12103 ft | 339 kts | 321° |
| 2026-05-09 02:59 | -19.61689 | -43.84342 | 11706 ft | 336 kts | 321° |
| 2026-05-09 02:59 | -19.59933 | -43.85967 | 11320 ft | 333 kts | 321° |
| 2026-05-09 03:00 | -19.58193 | -43.87576 | 10861 ft | 331 kts | 321° |
| 2026-05-09 03:00 | -19.56456 | -43.89183 | 10423 ft | 330 kts | 321° |
| 2026-05-09 03:00 | -19.54743 | -43.90767 | 10073 ft | 320 kts | 321° |
| 2026-05-09 03:00 | -19.53096 | -43.92289 | 9671 ft | 308 kts | 321° |
| 2026-05-09 03:01 | -19.51534 | -43.93733 | 9305 ft | 296 kts | 321° |
| 2026-05-09 03:01 | -19.50009 | -43.95142 | 8960 ft | 284 kts | 320° |
| 2026-05-09 03:01 | -19.48548 | -43.96491 | 8626 ft | 274 kts | 320° |
| 2026-05-09 03:01 | -19.47132 | -43.97799 | 8291 ft | 265 kts | 320° |
| 2026-05-09 03:02 | -19.45765 | -43.99062 | 7912 ft | 258 kts | 320° |
| 2026-05-09 03:02 | -19.44692 | -44.00569 | 7559 ft | 260 kts | 292° |
| 2026-05-09 03:02 | -19.44530 | -44.02449 | 7154 ft | 259 kts | 259° |
| 2026-05-09 03:02 | -19.45316 | -44.04122 | 6833 ft | 254 kts | 231° |
| 2026-05-09 03:03 | -19.46476 | -44.05491 | 6590 ft | 242 kts | 229° |
| 2026-05-09 03:03 | -19.47546 | -44.06780 | 6274 ft | 229 kts | 230° |
| 2026-05-09 03:03 | -19.48694 | -44.07904 | 5945 ft | 224 kts | 208° |
| 2026-05-09 03:03 | -19.50195 | -44.08223 | 5604 ft | 221 kts | 171° |
| 2026-05-09 03:04 | -19.51595 | -44.07662 | 5325 ft | 213 kts | 146° |
| 2026-05-09 03:04 | -19.52772 | -44.06762 | 5096 ft | 205 kts | 136° |
| 2026-05-09 03:04 | -19.53810 | -44.05761 | 4918 ft | 197 kts | 133° |
| 2026-05-09 03:04 | -19.54780 | -44.04842 | 4686 ft | 180 kts | 134° |
| 2026-05-09 03:05 | -19.55692 | -44.03993 | 4469 ft | 169 kts | 134° |
| 2026-05-09 03:05 | -19.56559 | -44.03189 | 4277 ft | 162 kts | 134° |
| 2026-05-09 03:05 | -19.57391 | -44.02417 | 4066 ft | 160 kts | 134° |
| 2026-05-09 03:05 | -19.58223 | -44.01645 | 3860 ft | 157 kts | 135° |
| 2026-05-09 03:06 | -19.59043 | -44.00883 | 3665 ft | 156 kts | 135° |
| 2026-05-09 03:06 | -19.59855 | -44.00132 | 3465 ft | 154 kts | 136° |
| 2026-05-09 03:06 | -19.60663 | -43.99376 | 3268 ft | 155 kts | 136° |
| 2026-05-09 03:06 | -19.61476 | -43.98629 | 3084 ft | 154 kts | 137° |
| 2026-05-09 03:07 | -19.62295 | -43.97871 | 2861 ft | 156 kts | 138° |
| 2026-05-09 03:07 | -19.63070 | -43.97154 | 2814 ft | 133 kts | 139° |
| 2026-05-09 03:07 | -19.63599 | -43.96665 | 2811 ft | 71 kts | 139° |
| 2026-05-09 03:07 | -19.63908 | -43.96379 | 2816 ft | 51 kts | 139° |
| 2026-05-09 03:08 | -19.64143 | -43.96160 | 2812 ft | 44 kts | 139° |
| 2026-05-09 03:08 | -19.64332 | -43.95984 | 2811 ft | 23 kts | 134° |
| 2026-05-09 03:08 | -19.64318 | -43.95866 | 2813 ft | 18 kts | 50° |
| 2026-05-09 03:08 | -19.64247 | -43.95843 | 2813 ft | 9 kts | 335° |
| 2026-05-09 03:09 | -19.64204 | -43.95879 | 2813 ft | 6 kts | 318° |
| 2026-05-09 03:09 | -19.64173 | -43.95907 | 2815 ft | 7 kts | 319° |
| 2026-05-09 03:09 | -19.64116 | -43.95959 | 2812 ft | 14 kts | 319° |
| 2026-05-09 03:09 | -19.64029 | -43.96039 | 2812 ft | 19 kts | 318° |
| 2026-05-09 03:10 | -19.63922 | -43.96139 | 2813 ft | 20 kts | 319° |
| 2026-05-09 03:10 | -19.63823 | -43.96231 | 2810 ft | 18 kts | 317° |
| 2026-05-09 03:10 | -19.63736 | -43.96311 | 2810 ft | 15 kts | 319° |
| 2026-05-09 03:10 | -19.63659 | -43.96385 | 2812 ft | 15 kts | 317° |
| 2026-05-09 03:11 | -19.63573 | -43.96462 | 2815 ft | 16 kts | 319° |
| 2026-05-09 03:11 | -19.63490 | -43.96538 | 2813 ft | 15 kts | 319° |
| 2026-05-09 03:11 | -19.63406 | -43.96616 | 2816 ft | 18 kts | 318° |
| 2026-05-09 03:11 | -19.63313 | -43.96700 | 2812 ft | 16 kts | 326° |
| 2026-05-09 03:12 | -19.63233 | -43.96670 | 2812 ft | 10 kts | 45° |
| 2026-05-09 03:12 | -19.63196 | -43.96623 | 2814 ft | 7 kts | 53° |
| 2026-05-09 03:12 | -19.63169 | -43.96588 | 2814 ft | 5 kts | 49° |
| 2026-05-09 03:12 | -19.63149 | -43.96564 | 2812 ft | 4 kts | 49° |
| 2026-05-09 03:13 | -19.63136 | -43.96548 | 2812 ft | 0 kts | 49° |